Time;durP1;ratioP1;P1;durP2;ratioP2;P2;SDS_P1;SDS_P2;PMS_P1;PMS_P2;Temp;Humidity;BMP_temperature;BMP_pressure;BME280_temperature;BME280_humidity;BME280_pressure;Samples;Min_cycle;Max_cycle;Signal;HPM_P1;HPM_P2
2021/04/10 00:01:32;;;;;;;;;;;5.10;70.60;;;;;;4880457;29;19916;-90
2021/04/10 00:03:58;;;;;;;;;;;5.00;70.50;;;;;;4895436;29;20463;-87
2021/04/10 00:06:24;;;;;;;;;;;5.10;70.70;;;;;;4887770;29;19955;-92
2021/04/10 00:08:49;;;;;;;;;;;5.10;70.80;;;;;;4863359;29;19908;-89
2021/04/10 00:11:15;;;;;;;;;;;5.00;71.00;;;;;;4879154;29;20542;-89
2021/04/10 00:13:40;;;;;;;;;;;5.00;70.80;;;;;;4880178;29;19962;-90
2021/04/10 00:16:06;;;;;;;;;;;5.00;70.60;;;;;;4879977;29;20390;-89
2021/04/10 00:18:31;;;;;;;;;;;5.00;70.90;;;;;;4879275;29;19918;-88
2021/04/10 00:20:57;;;;;;;;;;;4.90;70.70;;;;;;4880006;29;20044;-89
2021/04/10 00:23:22;;;;;;;;;;;4.90;71.00;;;;;;4880011;29;19919;-89
2021/04/10 00:25:48;;;;;;;;;;;4.90;70.90;;;;;;4880244;29;19918;-90
2021/04/10 00:28:14;;;;;;;;;;;4.80;71.10;;;;;;4879283;29;20418;-87
2021/04/10 00:30:39;;;;;;;;;;;4.90;71.00;;;;;;4879614;29;20006;-91
2021/04/10 00:33:05;;;;;;;;;;;4.90;71.40;;;;;;4874383;29;19916;-89
2021/04/10 00:35:31;;;;;;;;;;;4.90;71.00;;;;;;4879621;29;20010;-91
2021/04/10 00:37:56;;;;;;;;;;;4.80;71.40;;;;;;4863452;29;20010;-89
2021/04/10 00:40:22;;;;;;;;;;;4.80;71.00;;;;;;4863014;29;19915;-89
2021/04/10 00:42:48;;;;;;;;;;;4.90;70.90;;;;;;4879413;29;19923;-87
2021/04/10 00:45:13;;;;;;;;;;;4.80;70.80;;;;;;4879504;29;19919;-89
2021/04/10 00:47:39;;;;;;;;;;;4.80;71.10;;;;;;4880125;29;19918;-91
2021/04/10 00:50:05;;;;;;;;;;;4.80;71.00;;;;;;4879870;29;19908;-89
2021/04/10 00:52:30;;;;;;;;;;;4.80;71.20;;;;;;4879583;29;19923;-89
2021/04/10 00:54:56;;;;;;;;;;;4.80;71.40;;;;;;4878639;29;20386;-91
2021/04/10 00:57:22;;;;;;;;;;;4.80;71.60;;;;;;4879037;29;19964;-90
2021/04/10 00:59:48;;;;;;;;;;;4.80;71.40;;;;;;4879646;29;19954;-88
2021/04/10 01:02:14;;;;;;;;;;;4.90;71.30;;;;;;4879667;29;19911;-89
2021/04/10 01:04:40;;;;;;;;;;;4.80;71.30;;;;;;4879245;29;20248;-90
2021/04/10 01:07:06;;;;;;;;;;;4.70;71.20;;;;;;4878908;29;19912;-90
2021/04/10 01:09:31;;;;;;;;;;;4.70;71.30;;;;;;4879284;29;19922;-90
2021/04/10 01:12:15;;;;;;;;;;;4.70;71.70;;;;;;4879695;29;19945;-90
2021/04/10 01:14:54;;;;;;;;;;;4.70;71.60;;;;;;4878653;29;19933;-90
2021/04/10 01:17:22;;;;;;;;;;;4.70;71.80;;;;;;4878761;29;19912;-90
2021/04/10 01:20:07;;;;;;;;;;;4.70;72.20;;;;;;4878964;29;19915;-92
2021/04/10 01:22:38;;;;;;;;;;;4.60;72.00;;;;;;4860990;29;19923;-91
2021/04/10 01:25:05;;;;;;;;;;;4.60;72.00;;;;;;4878200;29;19998;-88
2021/04/10 01:27:49;;;;;;;;;;;4.70;71.80;;;;;;4878456;29;19967;-89
2021/04/10 01:30:16;;;;;;;;;;;4.70;72.10;;;;;;4878883;29;19912;-91
2021/04/10 01:32:53;;;;;;;;;;;4.70;71.80;;;;;;4879339;29;20298;-91
2021/04/10 01:35:20;;;;;;;;;;;4.70;72.00;;;;;;4862424;29;19912;-91
2021/04/10 01:37:50;;;;;;;;;;;4.70;72.20;;;;;;4878707;29;19908;-88
2021/04/10 01:40:16;;;;;;;;;;;4.70;72.00;;;;;;4878895;29;20324;-89
2021/04/10 01:42:44;;;;;;;;;;;4.80;71.90;;;;;;4878840;29;19941;-90
2021/04/10 01:45:10;;;;;;;;;;;4.70;72.20;;;;;;4878410;29;19961;-90
2021/04/10 01:47:37;;;;;;;;;;;4.70;72.20;;;;;;4879042;29;20433;-90
2021/04/10 01:50:05;;;;;;;;;;;4.70;72.20;;;;;;4878262;29;20022;-88
2021/04/10 01:52:31;;;;;;;;;;;4.70;72.60;;;;;;4877802;29;20389;-88
2021/04/10 01:54:58;;;;;;;;;;;4.60;72.80;;;;;;4878244;29;19916;-90
2021/04/10 01:57:24;;;;;;;;;;;4.60;72.70;;;;;;4878829;29;19940;-89
2021/04/10 01:59:50;;;;;;;;;;;4.50;72.70;;;;;;4885257;29;19907;-90
2021/04/10 02:02:15;;;;;;;;;;;4.60;72.80;;;;;;4881388;29;19915;-89
2021/04/10 02:04:42;;;;;;;;;;;4.50;72.90;;;;;;4878970;29;19911;-89
2021/04/10 02:07:09;;;;;;;;;;;4.60;73.00;;;;;;4861916;29;19918;-89
2021/04/10 02:09:35;;;;;;;;;;;4.60;72.90;;;;;;4874776;29;19967;-88
2021/04/10 02:12:01;;;;;;;;;;;4.60;72.90;;;;;;4878679;29;20324;-90
2021/04/10 02:14:27;;;;;;;;;;;4.60;72.60;;;;;;4878056;29;19915;-90
2021/04/10 02:16:53;;;;;;;;;;;4.60;72.80;;;;;;4878524;29;19924;-89
2021/04/10 02:19:19;;;;;;;;;;;4.70;72.80;;;;;;4878306;29;19914;-88
2021/04/10 02:21:44;;;;;;;;;;;4.70;72.70;;;;;;4879067;29;19918;-91
2021/04/10 02:24:11;;;;;;;;;;;4.70;72.60;;;;;;4878762;29;19994;-90
2021/04/10 02:26:36;;;;;;;;;;;4.70;72.20;;;;;;4878453;29;19918;-90
2021/04/10 02:29:02;;;;;;;;;;;4.70;72.60;;;;;;4877878;29;19920;-90
2021/04/10 02:31:36;;;;;;;;;;;4.70;72.40;;;;;;4874582;29;20363;-88
2021/04/10 02:34:07;;;;;;;;;;;4.70;72.70;;;;;;4879340;29;19939;-89
2021/04/10 02:36:35;;;;;;;;;;;4.70;72.60;;;;;;4882512;29;19912;-90
2021/04/10 02:39:00;;;;;;;;;;;4.60;72.70;;;;;;4881953;29;19912;-90
2021/04/10 02:41:27;;;;;;;;;;;4.70;72.50;;;;;;4882118;29;19914;-88
2021/04/10 02:43:55;;;;;;;;;;;4.70;72.70;;;;;;4865020;29;19935;-89
2021/04/10 02:46:22;;;;;;;;;;;4.70;72.60;;;;;;4881105;29;19911;-90
2021/04/10 02:49:07;;;;;;;;;;;4.70;72.90;;;;;;4881765;29;19911;-87
2021/04/10 02:51:38;;;;;;;;;;;4.60;73.10;;;;;;4881021;29;19965;-91
2021/04/10 02:54:05;;;;;;;;;;;4.60;73.40;;;;;;4881134;29;20367;-87
2021/04/10 02:56:32;;;;;;;;;;;4.60;73.10;;;;;;4872638;29;20283;-88
2021/04/10 02:58:59;;;;;;;;;;;4.50;73.20;;;;;;4880548;29;19911;-90
2021/04/10 03:01:25;;;;;;;;;;;4.60;73.40;;;;;;4880518;29;19946;-90
2021/04/10 03:03:51;;;;;;;;;;;4.50;73.40;;;;;;4881357;29;20043;-87
2021/04/10 03:06:17;;;;;;;;;;;4.50;73.50;;;;;;4880025;29;20371;-89
2021/04/10 03:08:42;;;;;;;;;;;4.50;73.40;;;;;;4861940;29;19920;-87
2021/04/10 03:11:09;;;;;;;;;;;4.50;73.60;;;;;;4880489;29;19919;-89
2021/04/10 03:13:35;;;;;;;;;;;4.50;73.40;;;;;;4856924;29;20367;-91
2021/04/10 03:16:00;;;;;;;;;;;4.60;73.30;;;;;;4876733;29;19945;-89
2021/04/10 03:18:26;;;;;;;;;;;4.50;73.70;;;;;;4881952;29;20382;-89
2021/04/10 03:20:52;;;;;;;;;;;4.50;73.50;;;;;;4880525;29;19918;-88
2021/04/10 03:23:18;;;;;;;;;;;4.60;73.80;;;;;;4881131;29;19908;-91
2021/04/10 03:25:43;;;;;;;;;;;4.60;73.70;;;;;;4881030;29;19914;-90
2021/04/10 03:28:09;;;;;;;;;;;4.50;74.00;;;;;;4880872;29;19919;-89
2021/04/10 03:30:36;;;;;;;;;;;4.60;73.90;;;;;;4879898;29;20359;-90
2021/04/10 03:33:01;;;;;;;;;;;4.60;73.70;;;;;;4880122;29;19951;-91
2021/04/10 03:35:27;;;;;;;;;;;4.60;73.80;;;;;;4880644;29;19982;-89
2021/04/10 03:37:54;;;;;;;;;;;4.50;73.90;;;;;;4880905;29;20044;-90
2021/04/10 03:40:20;;;;;;;;;;;4.50;73.80;;;;;;4880985;29;20263;-90
2021/04/10 03:42:46;;;;;;;;;;;4.40;74.10;;;;;;4880657;29;19912;-88
2021/04/10 03:45:13;;;;;;;;;;;4.50;74.30;;;;;;4880051;29;20328;-88
2021/04/10 03:47:38;;;;;;;;;;;4.50;74.10;;;;;;4879689;29;19918;-88
2021/04/10 03:50:05;;;;;;;;;;;4.50;74.10;;;;;;4880864;29;19912;-91
2021/04/10 03:52:30;;;;;;;;;;;4.50;74.20;;;;;;4878837;29;20375;-87
2021/04/10 03:54:56;;;;;;;;;;;4.40;74.30;;;;;;4881933;29;19991;-88
2021/04/10 03:57:21;;;;;;;;;;;4.40;74.50;;;;;;4880543;29;19920;-89
2021/04/10 03:59:48;;;;;;;;;;;4.40;74.10;;;;;;4880262;29;19928;-88
2021/04/10 04:02:13;;;;;;;;;;;4.50;74.50;;;;;;4861401;29;19928;-90
2021/04/10 04:04:39;;;;;;;;;;;4.50;74.40;;;;;;4893672;29;19908;-91
2021/04/10 04:07:04;;;;;;;;;;;4.40;74.30;;;;;;4882257;29;20312;-91
2021/04/10 04:09:30;;;;;;;;;;;4.40;74.30;;;;;;4880304;29;19911;-90
2021/04/10 04:11:56;;;;;;;;;;;4.40;74.30;;;;;;4857845;29;20282;-91
2021/04/10 04:14:21;;;;;;;;;;;4.50;74.30;;;;;;4876649;29;19922;-89
2021/04/10 04:16:47;;;;;;;;;;;4.40;74.60;;;;;;4880271;29;19980;-91
2021/04/10 04:19:12;;;;;;;;;;;4.40;74.50;;;;;;4863101;29;20371;-91
2021/04/10 04:21:38;;;;;;;;;;;4.40;74.30;;;;;;4879957;29;19912;-90
2021/04/10 04:24:04;;;;;;;;;;;4.40;74.50;;;;;;4861097;29;19912;-90
2021/04/10 04:26:29;;;;;;;;;;;4.40;74.70;;;;;;4879967;29;19919;-91
2021/04/10 04:28:55;;;;;;;;;;;4.40;74.50;;;;;;4879815;29;19919;-89
2021/04/10 04:31:20;;;;;;;;;;;4.40;74.50;;;;;;4879774;29;19912;-90
2021/04/10 04:33:46;;;;;;;;;;;4.40;74.40;;;;;;4878281;29;19942;-89
2021/04/10 04:36:12;;;;;;;;;;;4.50;74.40;;;;;;4879464;29;20027;-90
2021/04/10 04:38:38;;;;;;;;;;;4.50;74.30;;;;;;4879806;29;20320;-90
2021/04/10 04:41:03;;;;;;;;;;;4.50;74.30;;;;;;4879129;29;19918;-89
2021/04/10 04:43:29;;;;;;;;;;;4.60;73.90;;;;;;4878539;29;19918;-88
2021/04/10 04:45:54;;;;;;;;;;;4.70;73.60;;;;;;4878887;29;19912;-91
2021/04/10 04:48:20;;;;;;;;;;;4.70;73.50;;;;;;4878927;29;19919;-89
2021/04/10 04:50:45;;;;;;;;;;;4.80;73.60;;;;;;4879299;29;19934;-92
2021/04/10 04:53:11;;;;;;;;;;;5.00;73.20;;;;;;4879132;29;19968;-90
2021/04/10 04:55:36;;;;;;;;;;;5.00;73.50;;;;;;4879316;29;20303;-86
2021/04/10 04:58:02;;;;;;;;;;;5.10;73.20;;;;;;4877936;29;20351;-89
2021/04/10 05:00:28;;;;;;;;;;;5.20;73.40;;;;;;4854837;29;19967;-90
2021/04/10 05:02:53;;;;;;;;;;;5.30;73.80;;;;;;4879067;29;20344;-90
2021/04/10 05:05:19;;;;;;;;;;;5.40;73.00;;;;;;4862566;29;20350;-91
2021/04/10 05:07:44;;;;;;;;;;;5.50;72.50;;;;;;4879915;29;19946;-90
2021/04/10 05:10:10;;;;;;;;;;;5.70;72.40;;;;;;4878864;29;19915;-90
2021/04/10 05:12:36;;;;;;;;;;;5.80;71.30;;;;;;4879362;29;19920;-90
2021/04/10 05:15:02;;;;;;;;;;;5.90;70.80;;;;;;4878692;29;20427;-89
2021/04/10 05:17:27;;;;;;;;;;;6.10;70.90;;;;;;4878197;29;19916;-89
2021/04/10 05:19:53;;;;;;;;;;;6.20;70.80;;;;;;4879305;29;20286;-89
2021/04/10 05:22:18;;;;;;;;;;;6.40;69.40;;;;;;4878928;29;19915;-90
2021/04/10 05:24:44;;;;;;;;;;;6.50;69.00;;;;;;4879371;29;19916;-90
2021/04/10 05:27:09;;;;;;;;;;;6.70;68.40;;;;;;4878523;29;20345;-89
2021/04/10 05:29:35;;;;;;;;;;;6.80;68.90;;;;;;4879029;29;20286;-91
2021/04/10 05:32:00;;;;;;;;;;;6.90;67.70;;;;;;4862594;29;20014;-91
2021/04/10 05:34:26;;;;;;;;;;;7.00;67.70;;;;;;4878280;29;19946;-90
2021/04/10 05:36:51;;;;;;;;;;;7.10;67.90;;;;;;4879402;29;19912;-91
2021/04/10 05:39:17;;;;;;;;;;;7.20;66.30;;;;;;4878226;29;19912;-89
2021/04/10 05:41:42;;;;;;;;;;;7.30;65.90;;;;;;4875067;29;19916;-90
2021/04/10 05:44:08;;;;;;;;;;;7.40;66.40;;;;;;4878911;29;19907;-91
2021/04/10 05:46:33;;;;;;;;;;;7.50;65.20;;;;;;4878622;29;19912;-88
2021/04/10 05:48:59;;;;;;;;;;;7.50;66.00;;;;;;4877697;29;19918;-91
2021/04/10 05:51:25;;;;;;;;;;;7.60;65.80;;;;;;4878188;29;19954;-91
2021/04/10 05:53:50;;;;;;;;;;;7.60;64.60;;;;;;4878644;29;19916;-89
2021/04/10 05:56:16;;;;;;;;;;;7.70;64.50;;;;;;4878481;29;19908;-88
2021/04/10 05:58:41;;;;;;;;;;;7.70;64.60;;;;;;4851923;29;19916;-90
2021/04/10 06:01:07;;;;;;;;;;;7.80;64.90;;;;;;4873986;29;19971;-90
2021/04/10 06:03:33;;;;;;;;;;;7.80;65.00;;;;;;4878452;29;19916;-89
2021/04/10 06:05:58;;;;;;;;;;;7.80;64.30;;;;;;4878442;29;19919;-91
2021/04/10 06:08:24;;;;;;;;;;;7.90;64.30;;;;;;4878167;29;19915;-90
2021/04/10 06:10:50;;;;;;;;;;;7.90;64.50;;;;;;4865627;29;19931;-89
2021/04/10 06:13:15;;;;;;;;;;;7.90;64.70;;;;;;4881557;29;21698;-90
2021/04/10 06:15:41;;;;;;;;;;;7.90;64.30;;;;;;4865140;29;19928;-90
2021/04/10 06:18:07;;;;;;;;;;;7.90;64.30;;;;;;4881475;29;19994;-90
2021/04/10 06:20:32;;;;;;;;;;;7.90;64.90;;;;;;4881409;29;19912;-89
2021/04/10 06:22:58;;;;;;;;;;;7.90;65.20;;;;;;4881721;29;19911;-90
2021/04/10 06:25:24;;;;;;;;;;;8.00;64.90;;;;;;4881479;29;19908;-89
2021/04/10 06:27:49;;;;;;;;;;;8.00;65.20;;;;;;4881604;29;20105;-92
2021/04/10 06:30:15;;;;;;;;;;;8.00;64.80;;;;;;4877965;29;20007;-89
2021/04/10 06:32:41;;;;;;;;;;;8.20;65.00;;;;;;4881071;29;19968;-92
2021/04/10 06:35:06;;;;;;;;;;;8.30;64.40;;;;;;4879377;29;19996;-90
2021/04/10 06:37:32;;;;;;;;;;;8.40;64.50;;;;;;4882029;29;20308;-89
2021/04/10 06:39:58;;;;;;;;;;;8.50;64.20;;;;;;4881594;29;19994;-87
2021/04/10 06:42:24;;;;;;;;;;;8.70;63.20;;;;;;4881357;29;19912;-89
2021/04/10 06:44:50;;;;;;;;;;;8.80;63.20;;;;;;4882489;29;19915;-89
2021/04/10 06:47:18;;;;;;;;;;;8.90;62.40;;;;;;4856814;29;20275;-91
2021/04/10 06:49:44;;;;;;;;;;;9.00;63.00;;;;;;4859545;29;19923;-89
2021/04/10 06:52:10;;;;;;;;;;;9.10;62.20;;;;;;4884901;29;20283;-88
2021/04/10 06:54:37;;;;;;;;;;;9.30;61.30;;;;;;4874827;29;19946;-89
2021/04/10 06:57:10;;;;;;;;;;;9.40;61.60;;;;;;4881169;29;20290;-91
2021/04/10 06:59:40;;;;;;;;;;;9.50;61.20;;;;;;4866932;29;20008;-90
2021/04/10 07:02:09;;;;;;;;;;;9.60;60.60;;;;;;4880082;29;19912;-90
2021/04/10 07:04:35;;;;;;;;;;;9.70;60.40;;;;;;4879930;29;19967;-91
2021/04/10 07:07:00;;;;;;;;;;;9.90;59.90;;;;;;4881546;29;19912;-91
2021/04/10 07:09:26;;;;;;;;;;;10.00;60.30;;;;;;4880780;29;20044;-91
2021/04/10 07:11:55;;;;;;;;;;;10.10;60.20;;;;;;4881390;29;19919;-91
2021/04/10 07:14:20;;;;;;;;;;;10.30;59.00;;;;;;4880621;29;19912;-90
2021/04/10 07:16:46;;;;;;;;;;;10.40;59.90;;;;;;4881092;29;19927;-89
2021/04/10 07:19:12;;;;;;;;;;;10.50;58.00;;;;;;4881562;29;19923;-92
2021/04/10 07:21:37;;;;;;;;;;;10.60;57.60;;;;;;4879971;29;19922;-90
2021/04/10 07:24:03;;;;;;;;;;;10.70;58.30;;;;;;4880900;29;19962;-91
2021/04/10 07:26:47;;;;;;;;;;;10.90;57.10;;;;;;4884057;29;19919;-90
2021/04/10 07:29:31;;;;;;;;;;;11.10;57.20;;;;;;4864315;29;20226;-92
2021/04/10 07:31:57;;;;;;;;;;;11.30;56.00;;;;;;4869495;29;19976;-90
2021/04/10 07:34:23;;;;;;;;;;;11.60;54.90;;;;;;4880737;29;19999;-91
2021/04/10 07:36:56;;;;;;;;;;;11.70;55.50;;;;;;4864356;29;20378;-92
2021/04/10 07:39:21;;;;;;;;;;;11.90;54.40;;;;;;4879904;29;19999;-90
2021/04/10 07:41:56;;;;;;;;;;;12.00;53.40;;;;;;4881342;29;20002;-92
2021/04/10 07:44:35;;;;;;;;;;;12.00;52.50;;;;;;4881885;29;20359;-91
2021/04/10 07:47:02;;;;;;;;;;;12.20;53.20;;;;;;4877015;29;19919;-91
2021/04/10 07:49:29;;;;;;;;;;;12.20;53.50;;;;;;4881035;29;19975;-91
2021/04/10 07:51:55;;;;;;;;;;;12.20;53.20;;;;;;4880308;29;19916;-92
2021/04/10 07:54:21;;;;;;;;;;;12.20;52.90;;;;;;4880078;29;19919;-90
2021/04/10 07:56:58;;;;;;;;;;;12.20;52.60;;;;;;4882209;29;19916;-91
2021/04/10 07:59:24;;;;;;;;;;;12.20;52.80;;;;;;4863174;29;20057;-92
2021/04/10 08:01:50;;;;;;;;;;;12.30;53.20;;;;;;4865231;29;19947;-91
2021/04/10 08:04:16;;;;;;;;;;;12.50;53.00;;;;;;4880086;29;19911;-91
2021/04/10 08:06:59;;;;;;;;;;;12.60;52.20;;;;;;4880685;29;20006;-90
2021/04/10 08:09:28;;;;;;;;;;;12.70;51.00;;;;;;4880858;29;19960;-91
2021/04/10 08:11:55;;;;;;;;;;;12.90;51.30;;;;;;4878913;29;19946;-93
2021/04/10 08:14:21;;;;;;;;;;;12.80;51.20;;;;;;4885838;29;19908;-90
2021/04/10 08:16:50;;;;;;;;;;;12.80;50.90;;;;;;4880136;29;19930;-89
2021/04/10 08:19:16;;;;;;;;;;;12.90;51.90;;;;;;4868940;29;19915;-90
2021/04/10 08:21:49;;;;;;;;;;;13.10;51.60;;;;;;4862704;29;20018;-90
2021/04/10 08:24:21;;;;;;;;;;;13.10;51.30;;;;;;4851471;29;19950;-89
2021/04/10 08:26:48;;;;;;;;;;;13.10;51.00;;;;;;4873201;29;19916;-90
2021/04/10 08:29:13;;;;;;;;;;;13.10;50.90;;;;;;4860755;29;19955;-91
2021/04/10 08:31:39;;;;;;;;;;;13.10;51.30;;;;;;4860211;29;19980;-90
2021/04/10 08:34:04;;;;;;;;;;;13.20;51.30;;;;;;4843264;29;19920;-90
2021/04/10 08:36:31;;;;;;;;;;;13.10;51.20;;;;;;4861997;29;19973;-92
2021/04/10 08:38:57;;;;;;;;;;;13.20;51.20;;;;;;4860651;29;19946;-90
2021/04/10 08:41:27;;;;;;;;;;;13.20;51.50;;;;;;4860322;29;20256;-90
2021/04/10 08:43:53;;;;;;;;;;;13.20;51.70;;;;;;4861248;29;19927;-91
2021/04/10 08:46:19;;;;;;;;;;;13.30;52.40;;;;;;4853098;29;19916;-91
2021/04/10 08:48:45;;;;;;;;;;;13.50;51.20;;;;;;4859796;29;19919;-91
2021/04/10 08:51:14;;;;;;;;;;;13.70;50.10;;;;;;4859808;29;19927;-91
2021/04/10 08:53:45;;;;;;;;;;;13.80;50.30;;;;;;4860145;29;20014;-91
2021/04/10 08:56:10;;;;;;;;;;;14.00;50.50;;;;;;4860536;29;19908;-89
2021/04/10 08:58:39;;;;;;;;;;;14.10;50.30;;;;;;4853896;29;19971;-90
2021/04/10 09:01:08;;;;;;;;;;;14.20;49.70;;;;;;4859809;29;19915;-90
2021/04/10 09:03:46;;;;;;;;;;;14.30;49.10;;;;;;4859390;29;19919;-90
2021/04/10 09:06:11;;;;;;;;;;;14.50;49.40;;;;;;4853877;29;20478;-90
2021/04/10 09:08:37;;;;;;;;;;;14.50;48.30;;;;;;4859791;29;19969;-90
2021/04/10 09:11:04;;;;;;;;;;;14.60;48.60;;;;;;4844543;29;20375;-90
2021/04/10 09:13:38;;;;;;;;;;;14.50;48.80;;;;;;4860116;29;20437;-91
2021/04/10 09:16:22;;;;;;;;;;;14.70;48.20;;;;;;4870454;29;19923;-91
2021/04/10 09:18:55;;;;;;;;;;;14.80;48.40;;;;;;4851104;29;19965;-91
2021/04/10 09:21:25;;;;;;;;;;;14.80;48.60;;;;;;4878071;29;19955;-93
2021/04/10 09:23:50;;;;;;;;;;;14.80;48.60;;;;;;4877950;29;19912;-91
2021/04/10 09:26:17;;;;;;;;;;;14.80;48.10;;;;;;4880548;29;19912;-91
2021/04/10 09:28:55;;;;;;;;;;;14.90;48.10;;;;;;4879483;29;19916;-92
2021/04/10 09:31:37;;;;;;;;;;;15.00;48.60;;;;;;4877169;29;19907;-91
2021/04/10 09:34:03;;;;;;;;;;;15.10;47.40;;;;;;4858039;29;19920;-91
2021/04/10 09:36:45;;;;;;;;;;;15.30;47.30;;;;;;4855299;29;19907;-91
2021/04/10 09:39:11;;;;;;;;;;;15.40;46.90;;;;;;4878505;29;19943;-91
2021/04/10 09:41:48;;;;;;;;;;;15.40;44.80;;;;;;4862258;29;19982;-91
2021/04/10 09:44:14;;;;;;;;;;;15.40;45.40;;;;;;4878051;29;19911;-89
2021/04/10 09:46:39;;;;;;;;;;;15.40;45.80;;;;;;4878566;29;20011;-91
2021/04/10 09:49:05;;;;;;;;;;;15.40;45.30;;;;;;4867957;29;20002;-91
2021/04/10 09:51:38;;;;;;;;;;;15.30;45.70;;;;;;4880529;29;19918;-92
2021/04/10 09:54:04;;;;;;;;;;;15.20;46.10;;;;;;4878556;29;19927;-90
2021/04/10 09:56:31;;;;;;;;;;;15.30;46.20;;;;;;4877805;29;19912;-91
2021/04/10 09:59:01;;;;;;;;;;;15.40;47.10;;;;;;4879054;29;20000;-90
2021/04/10 10:01:29;;;;;;;;;;;15.60;46.00;;;;;;4878234;29;19912;-92
2021/04/10 10:03:55;;;;;;;;;;;15.70;45.80;;;;;;4878436;29;19912;-92
2021/04/10 10:06:25;;;;;;;;;;;15.70;45.50;;;;;;4878209;29;19998;-91
2021/04/10 10:08:51;;;;;;;;;;;15.90;45.50;;;;;;4877483;29;20387;-91
2021/04/10 10:11:17;;;;;;;;;;;16.00;44.80;;;;;;4878860;29;19912;-91
2021/04/10 10:13:43;;;;;;;;;;;15.90;43.90;;;;;;4888367;29;19950;-91
2021/04/10 10:16:08;;;;;;;;;;;15.90;44.20;;;;;;4880637;29;19919;-92
2021/04/10 10:18:34;;;;;;;;;;;16.00;44.50;;;;;;4872979;29;20269;-92
2021/04/10 10:21:02;;;;;;;;;;;16.20;45.20;;;;;;4890336;29;19908;-93
2021/04/10 10:23:48;;;;;;;;;;;16.20;44.20;;;;;;4881364;29;19907;-91
2021/04/10 10:26:17;;;;;;;;;;;16.20;41.80;;;;;;4864063;29;20003;-92
2021/04/10 10:28:43;;;;;;;;;;;16.40;43.80;;;;;;4878725;29;19922;-88
2021/04/10 10:31:10;;;;;;;;;;;16.50;43.70;;;;;;4867644;29;19914;-91
2021/04/10 10:33:36;;;;;;;;;;;16.70;43.10;;;;;;4864176;29;19920;-89
2021/04/10 10:36:02;;;;;;;;;;;16.70;42.20;;;;;;4865682;29;19916;-92
2021/04/10 10:38:32;;;;;;;;;;;16.80;43.50;;;;;;4863236;29;19911;-90
2021/04/10 10:40:57;;;;;;;;;;;16.80;42.70;;;;;;4879197;29;19915;-90
2021/04/10 10:43:24;;;;;;;;;;;16.80;40.90;;;;;;4877927;29;20390;-90
2021/04/10 10:46:00;;;;;;;;;;;16.90;41.30;;;;;;4865611;29;19998;-91
2021/04/10 10:48:25;;;;;;;;;;;16.30;40.00;;;;;;4881136;29;19911;-93
2021/04/10 10:50:56;;;;;;;;;;;16.40;40.70;;;;;;4883988;29;20281;-89
2021/04/10 10:53:24;;;;;;;;;;;16.50;41.10;;;;;;4878453;29;19980;-92
2021/04/10 10:55:53;;;;;;;;;;;16.50;41.20;;;;;;4862525;29;19965;-92
2021/04/10 10:58:19;;;;;;;;;;;16.60;40.20;;;;;;4864835;29;19915;-93
2021/04/10 11:00:44;;;;;;;;;;;16.70;41.90;;;;;;4884842;29;19912;-92
2021/04/10 11:03:17;;;;;;;;;;;16.70;40.70;;;;;;4881082;29;19907;-92
2021/04/10 11:05:42;;;;;;;;;;;16.80;39.30;;;;;;4880658;29;19914;-91
2021/04/10 11:08:08;;;;;;;;;;;16.90;41.10;;;;;;4864891;29;19911;-89
2021/04/10 11:10:34;;;;;;;;;;;17.20;42.00;;;;;;4882231;29;19950;-92
2021/04/10 11:12:59;;;;;;;;;;;17.40;41.60;;;;;;4866023;29;19920;-92
2021/04/10 11:15:25;;;;;;;;;;;17.40;38.50;;;;;;4872940;29;19972;-89
2021/04/10 11:17:50;;;;;;;;;;;17.60;38.70;;;;;;4865596;29;19919;-92
2021/04/10 11:20:32;;;;;;;;;;;17.70;38.90;;;;;;4882208;29;19983;-92
2021/04/10 11:23:05;;;;;;;;;;;17.60;39.30;;;;;;4860537;29;19912;-90
2021/04/10 11:25:51;;;;;;;;;;;17.70;40.40;;;;;;4880847;29;19966;-93
2021/04/10 11:28:30;;;;;;;;;;;17.60;38.10;;;;;;4880762;29;19922;-89
2021/04/10 11:31:21;;;;;;;;;;;17.80;39.20;;;;;;4877293;29;20299;-93
2021/04/10 11:33:47;;;;;;;;;;;17.90;39.40;;;;;;4883922;29;19972;-91
2021/04/10 11:36:12;;;;;;;;;;;18.10;39.60;;;;;;4882123;29;19916;-91
2021/04/10 11:38:58;;;;;;;;;;;18.10;36.80;;;;;;4881239;29;20339;-92
2021/04/10 11:41:42;;;;;;;;;;;18.00;37.20;;;;;;4880745;29;19916;-92
2021/04/10 11:44:08;;;;;;;;;;;17.80;37.20;;;;;;4881166;29;20371;-90
2021/04/10 11:46:33;;;;;;;;;;;17.90;36.70;;;;;;4881365;29;19912;-89
2021/04/10 11:48:58;;;;;;;;;;;17.80;37.90;;;;;;4887747;29;19907;-89
2021/04/10 11:51:25;;;;;;;;;;;17.70;37.70;;;;;;4884957;29;19912;-91
2021/04/10 11:53:52;;;;;;;;;;;17.80;37.00;;;;;;4880543;29;19920;-92
2021/04/10 11:56:23;;;;;;;;;;;17.70;38.10;;;;;;4859500;29;19911;-92
2021/04/10 11:59:05;;;;;;;;;;;17.60;37.80;;;;;;4884393;29;19911;-90
2021/04/10 12:01:31;;;;;;;;;;;17.60;38.00;;;;;;4880224;29;20363;-91
2021/04/10 12:04:02;;;;;;;;;;;17.60;38.50;;;;;;4880133;29;19919;-91
2021/04/10 12:06:37;;;;;;;;;;;17.80;37.60;;;;;;4882209;29;20264;-90
2021/04/10 12:09:06;;;;;;;;;;;17.70;37.90;;;;;;4880750;29;19920;-90
2021/04/10 12:11:32;;;;;;;;;;;17.70;37.10;;;;;;4879493;29;19960;-90
2021/04/10 12:13:58;;;;;;;;;;;17.70;37.30;;;;;;4895651;29;19919;-91
2021/04/10 12:16:23;;;;;;;;;;;17.80;38.10;;;;;;4881193;29;19931;-90
2021/04/10 12:18:49;;;;;;;;;;;17.90;39.00;;;;;;4885566;29;19911;-90
2021/04/10 12:21:14;;;;;;;;;;;17.90;38.00;;;;;;4887471;29;19919;-90
2021/04/10 12:23:40;;;;;;;;;;;18.00;38.50;;;;;;4861981;29;19964;-91
2021/04/10 12:26:06;;;;;;;;;;;18.10;37.90;;;;;;4879738;29;19915;-91
2021/04/10 12:28:32;;;;;;;;;;;18.10;38.00;;;;;;4881111;29;19915;-91
2021/04/10 12:30:57;;;;;;;;;;;18.20;38.40;;;;;;4879661;29;19911;-89
2021/04/10 12:33:23;;;;;;;;;;;18.10;37.60;;;;;;4879620;29;20454;-92
2021/04/10 12:35:48;;;;;;;;;;;18.10;37.70;;;;;;4879322;29;20294;-92
2021/04/10 12:38:15;;;;;;;;;;;18.10;38.00;;;;;;4879956;29;19968;-90
2021/04/10 12:40:41;;;;;;;;;;;18.10;37.80;;;;;;4882084;29;19919;-92
2021/04/10 12:43:06;;;;;;;;;;;18.20;37.20;;;;;;4879951;29;19915;-93
2021/04/10 12:45:32;;;;;;;;;;;18.10;37.60;;;;;;4878987;29;19923;-90
2021/04/10 12:47:57;;;;;;;;;;;18.20;37.00;;;;;;4879129;29;20020;-89
2021/04/10 12:50:24;;;;;;;;;;;18.20;35.50;;;;;;4878989;29;20418;-89
2021/04/10 12:52:50;;;;;;;;;;;18.30;34.70;;;;;;4879928;29;19927;-90
2021/04/10 12:55:16;;;;;;;;;;;18.20;35.20;;;;;;4879334;29;19908;-88
2021/04/10 12:57:42;;;;;;;;;;;18.30;35.20;;;;;;4877727;29;20014;-91
2021/04/10 13:00:09;;;;;;;;;;;18.30;35.00;;;;;;4878986;29;19911;-87
2021/04/10 13:02:35;;;;;;;;;;;18.20;35.00;;;;;;4880345;29;20350;-91
2021/04/10 13:05:01;;;;;;;;;;;18.20;35.80;;;;;;4879447;29;19912;-89
2021/04/10 13:07:26;;;;;;;;;;;18.10;35.40;;;;;;4878562;29;19916;-87
2021/04/10 13:09:52;;;;;;;;;;;18.10;35.50;;;;;;4878027;29;20029;-87
2021/04/10 13:12:18;;;;;;;;;;;18.00;36.70;;;;;;4878238;29;19926;-89
2021/04/10 13:14:44;;;;;;;;;;;17.90;36.20;;;;;;4878927;29;19912;-89
2021/04/10 13:17:13;;;;;;;;;;;17.80;36.60;;;;;;4878335;29;20272;-88
2021/04/10 13:19:38;;;;;;;;;;;17.70;36.80;;;;;;4877005;29;19912;-92
2021/04/10 13:22:05;;;;;;;;;;;17.70;36.70;;;;;;4878451;29;19923;-90
2021/04/10 13:24:30;;;;;;;;;;;17.50;36.90;;;;;;4879024;29;19912;-90
2021/04/10 13:26:56;;;;;;;;;;;17.40;38.00;;;;;;4878476;29;20047;-91
2021/04/10 13:29:22;;;;;;;;;;;17.40;38.40;;;;;;4879515;29;19934;-92
2021/04/10 13:31:48;;;;;;;;;;;17.20;38.00;;;;;;4877321;29;20363;-88
2021/04/10 13:34:14;;;;;;;;;;;17.20;38.20;;;;;;4877231;29;20375;-91
2021/04/10 13:36:43;;;;;;;;;;;17.10;38.10;;;;;;4877553;29;19912;-89
2021/04/10 13:39:09;;;;;;;;;;;17.00;38.20;;;;;;4877752;29;20271;-90
2021/04/10 13:41:36;;;;;;;;;;;17.00;38.40;;;;;;4878198;29;19941;-90
2021/04/10 13:44:02;;;;;;;;;;;16.80;38.00;;;;;;4873976;29;19964;-85
2021/04/10 13:46:27;;;;;;;;;;;16.70;37.90;;;;;;4876159;29;19912;-86
2021/04/10 13:48:53;;;;;;;;;;;16.70;38.30;;;;;;4873068;29;20290;-85
2021/04/10 13:51:19;;;;;;;;;;;16.70;39.40;;;;;;4875988;29;19918;-85
2021/04/10 13:53:44;;;;;;;;;;;16.70;38.90;;;;;;4876953;29;19926;-89
2021/04/10 13:56:10;;;;;;;;;;;16.70;38.90;;;;;;4878612;29;19935;-93
2021/04/10 13:58:36;;;;;;;;;;;16.70;38.60;;;;;;4880575;29;20278;-95
2021/04/10 14:01:02;;;;;;;;;;;16.70;39.80;;;;;;4879376;29;19955;-90
2021/04/10 14:03:28;;;;;;;;;;;16.70;39.10;;;;;;4860402;29;20334;-85
2021/04/10 14:05:53;;;;;;;;;;;16.70;39.30;;;;;;4881110;29;20003;-86
2021/04/10 14:08:20;;;;;;;;;;;16.70;38.60;;;;;;4876460;29;19912;-93
2021/04/10 14:10:47;;;;;;;;;;;16.70;38.60;;;;;;4877863;29;19911;-90
2021/04/10 14:13:12;;;;;;;;;;;16.70;39.80;;;;;;4877422;29;20306;-90
2021/04/10 14:15:38;;;;;;;;;;;16.70;39.20;;;;;;4860359;29;19920;-90
2021/04/10 14:18:05;;;;;;;;;;;16.70;40.10;;;;;;4883365;29;20282;-89
2021/04/10 14:20:32;;;;;;;;;;;16.70;41.30;;;;;;4877810;29;19911;-91
2021/04/10 14:22:58;;;;;;;;;;;16.70;40.20;;;;;;4877802;29;19918;-89
2021/04/10 14:25:24;;;;;;;;;;;16.70;39.40;;;;;;4877336;29;19916;-90